Greenfield, Ohio
Current Conditions -  °F | °C
As of 8:34 AM on Thursday 23 Oct 2014 (Local Time) from KRZT Reporting Station
Haze Haze  
Wind Chill: 37°   Ceiling: Unl
Heat Index: 37°   Visibility: 4mi
Dew Point: 37°   Wind: 3mph
Humidity: 100%   Direction: 290°WNW
Pressure: 30.24"   Gusts: NA
Location:  39.35°N, 83.38°W
Report Text: KRZT 231234Z AUTO 29003KT 4SM BR CLR 03/03 A3024 RMK AO2
Loading
Personal Weather Stations






























Interactive Weather Map
Tropical Storm Tracking
New forecast layout! Learn more

10-Day Weather Forecast

Advertisements
Track Severe Weather on mobile